Mackenzie Hope — WDJ2187 — position and weather

sailwx.info

Track history (hours):
 
Tides and Currents Weather Stations Pressure Air Temp Water Temp Dewpoint Dewpoint Depression Visibility Wind Speed Wind Dir Waves Ship Positions

Mackenzie Hope

Owner: Genesis Marine, LLC, Houston, TX. More information available from US FCC via Universal Licensing System and Coast Guard Vessel Documentation Center.

Last reported at 2017-Nov-18 11:30 UTC. Time now 2017-Nov-22 11:02 UTC.
Position N 29°30' W 094°52'.

Length 25 m; draft 3.3 m.

Type: Ship (hazmat cat B). MMSI: 367756040.

Date/timePositionNaut miles runAvg speedWind from/ knotsBaromVisibWave heightAir tempDewpointWater temp
2017-Nov-18 11:30N 29°30' W 094°52'4 8.0
2017-Nov-18 10:59N 29°33' W 094°55'4 8.0
2017-Nov-18 10:30N 29°36' W 094°57'4 8.2
2017-Nov-18 10:00N 29°40' W 094°59'4 6.2
2017-Nov-18 09:23N 29°43' W 095°01'5 1.0
2017-Nov-18 04:30N 29°46' W 095°06'0 0.2
2017-Nov-18 01:25N 29°46' W 095°06'2 5.4
2017-Nov-18 01:00N 29°45' W 095°04'3 7.0
2017-Nov-18 00:30N 29°42' W 095°01'4 7.2
2017-Nov-18 00:00N 29°40' W 094°58'4 7.5
2017-Nov-17 23:30N 29°36' W 094°57'4 7.2
2017-Nov-17 23:00N 29°33' W 094°55'4 7.5
2017-Nov-17 22:25N 29°30' W 094°52'68 4.7
2017-Nov-17 07:52N 30°03' W 093°43'3 6.9
2017-Nov-17 07:30N 30°04' W 093°40'4 6.9
2017-Nov-17 06:59N 30°04' W 093°36'3 6.6
2017-Nov-17 06:30N 30°04' W 093°33'3 6.6
2017-Nov-17 06:00N 30°04' W 093°29'3 6.8
2017-Nov-17 05:30N 30°04' W 093°25'3 5.8
2017-Nov-17 05:00N 30°04' W 093°22'3 6.6
2017-Nov-17 04:30N 30°06' W 093°19'2 3.1
2017-Nov-17 04:00N 30°05' W 093°17'1 2.1
2017-Nov-17 03:30N 30°05' W 093°16'0 0.1
2017-Nov-17 03:00N 30°04' W 093°16'2 3.2
2017-Nov-17 02:31N 30°03' W 093°16'3 6.1
2017-Nov-17 02:00N 30°01' W 093°14'3 6.6
2017-Nov-17 01:30N 29°58' W 093°11'3 6.2
2017-Nov-17 01:00N 29°56' W 093°08'3 6.7
2017-Nov-17 00:30N 29°56' W 093°05'0 0.3
2017-Nov-17 00:00N 29°56' W 093°04'33 6.2
2017-Nov-16 18:36N 29°53' W 092°26'2 6.4
2017-Nov-16 18:22N 29°53' W 092°24'3 6.1
2017-Nov-16 17:53N 29°51' W 092°22'2 6.5
2017-Nov-16 17:30N 29°50' W 092°19'3 5.9
2017-Nov-16 17:00N 29°49' W 092°16'3 6.8
2017-Nov-16 16:30N 29°47' W 092°13'3 6.1
2017-Nov-16 16:01N 29°47' W 092°09'3 6.8
2017-Nov-16 15:30N 29°48' W 092°05'3 6.8
2017-Nov-16 15:00N 29°49' W 092°02'3 6.6
2017-Nov-16 14:30N 29°50' W 091°58'3 6.4
2017-Nov-16 14:00N 29°51' W 091°55'4 5.4
2017-Nov-16 13:15N 29°50' W 091°50'2 6.2
2017-Nov-16 13:00N 29°49' W 091°49'49 6.0
2017-Nov-16 04:54N 29°34' W 090°56'3 6.7
2017-Nov-16 04:27N 29°32' W 090°53'3 6.4
2017-Nov-16 04:00N 29°32' W 090°50'3 6.6
2017-Nov-16 03:31N 29°32' W 090°46'3 5.1
2017-Nov-16 03:00N 29°34' W 090°44'2 3.9
2017-Nov-16 02:30N 29°36' W 090°43'2 4.2
2017-Nov-16 02:00N 29°36' W 090°40'3 6.2
2017-Nov-16 01:31N 29°35' W 090°37'3 5.6
2017-Nov-16 01:00N 29°34' W 090°34'3 6.1
2017-Nov-16 00:30N 29°34' W 090°31'24 1.2
2017-Nov-15 04:59N 29°56' W 090°21'2 3.9
2017-Nov-15 04:27N 29°57' W 090°23'  
2017-Nov-11 23:50N 29°33' W 090°24'2 5.3
2017-Nov-11 23:30N 29°33' W 090°26'3 5.3
2017-Nov-11 23:00N 29°34' W 090°29'3 5.2
2017-Nov-11 22:30N 29°34' W 090°32'2 4.7
2017-Nov-11 22:00N 29°34' W 090°35'2 4.6
2017-Nov-11 21:30N 29°35' W 090°37'2 4.5
2017-Nov-11 21:00N 29°36' W 090°39'2 4.3
2017-Nov-11 20:30N 29°37' W 090°42'2 3.2
2017-Nov-11 20:00N 29°35' W 090°43'2 4.1
2017-Nov-11 19:30N 29°34' W 090°44'1 2.1
2017-Nov-11 19:00N 29°33' W 090°45'1 1.5
2017-Nov-11 18:30N 29°32' W 090°46'0 0.0
2017-Nov-11 18:00N 29°32' W 090°46'0 0.8
2017-Nov-11 17:30N 29°32' W 090°46'3 5.1
2017-Nov-11 16:59N 29°32' W 090°49'3 5.5
2017-Nov-11 16:23N 29°32' W 090°53'54 4.2
2017-Nov-11 03:29N 29°51' W 091°52'59 4.4
2017-Nov-10 13:51N 29°56' W 093°00'2 4.8
2017-Nov-10 13:29N 29°56' W 093°02'2 4.8
2017-Nov-10 13:00N 29°56' W 093°05'2 3.8
2017-Nov-10 12:30N 29°56' W 093°07'2 3.9
2017-Nov-10 12:00N 29°56' W 093°09'2 4.8
2017-Nov-10 11:30N 29°58' W 093°11'2 4.8
2017-Nov-10 11:00N 29°60' W 093°13'2 4.1
2017-Nov-10 10:30N 30°01' W 093°14'2 4.3
2017-Nov-10 10:00N 30°03' W 093°16'2 4.5
2017-Nov-10 09:30N 30°05' W 093°17'1 2.3
2017-Nov-10 09:00N 30°06' W 093°18'0 0.6
2017-Nov-10 08:30N 30°06' W 093°18'0 0.0
2017-Nov-10 08:00N 30°06' W 093°18'0 0.1
2017-Nov-10 07:30N 30°06' W 093°18'1 2.0
2017-Nov-10 07:00N 30°06' W 093°19'2 4.7
2017-Nov-10 06:30N 30°08' W 093°20'3 6.0
2017-Nov-10 06:00N 30°11' W 093°19'0 0.8
2017-Nov-10 05:30N 30°11' W 093°18'0 0.0
2017-Nov-10 05:00N 30°11' W 093°18'0 0.4
2017-Nov-10 04:30N 30°11' W 093°19'0 0.0
2017-Nov-10 04:00N 30°11' W 093°19'0 0.0
2017-Nov-10 03:30N 30°11' W 093°19'0 0.0
2017-Nov-10 03:00N 30°11' W 093°19'0 0.0
2017-Nov-10 02:30N 30°11' W 093°19'0 0.0
2017-Nov-10 02:00N 30°11' W 093°19'0 0.0
2017-Nov-10 01:30N 30°11' W 093°19'0 0.0
2017-Nov-10 01:00N 30°11' W 093°19'0 0.0
2017-Nov-10 00:30N 30°11' W 093°19'0 0.0
2017-Nov-10 00:00N 30°11' W 093°19'0 0.0
2017-Nov-09 23:30N 30°11' W 093°19'0 0.0
2017-Nov-09 23:00N 30°11' W 093°19'0 0.0
2017-Nov-09 22:30N 30°11' W 093°19'0 0.0
2017-Nov-09 22:00N 30°11' W 093°19'0 0.0
2017-Nov-09 21:30N 30°11' W 093°19'0 0.0
2017-Nov-09 21:00N 30°11' W 093°19'0 0.0
2017-Nov-09 20:30N 30°11' W 093°19'0 0.0
2017-Nov-09 20:00N 30°11' W 093°19'0 0.0
2017-Nov-09 19:30N 30°11' W 093°19'0 0.0
2017-Nov-09 19:00N 30°11' W 093°19'0 0.0
2017-Nov-09 18:30N 30°11' W 093°19'0 0.0
2017-Nov-09 18:00N 30°11' W 093°19'0 0.0
2017-Nov-09 17:30N 30°11' W 093°19'0 0.0
2017-Nov-09 17:00N 30°11' W 093°19'0 0.0
2017-Nov-09 16:30N 30°11' W 093°19'0 0.0
2017-Nov-09 16:00N 30°11' W 093°19'0 0.0
2017-Nov-09 15:30N 30°11' W 093°19'0 0.0
2017-Nov-09 15:00N 30°11' W 093°19'0 0.0
2017-Nov-09 14:30N 30°11' W 093°19'0 0.0
2017-Nov-09 14:00N 30°11' W 093°19'0 0.0
2017-Nov-09 13:30N 30°11' W 093°19'0 0.0
2017-Nov-09 13:00N 30°11' W 093°19'0 0.0
2017-Nov-09 12:30N 30°11' W 093°19'0 0.0
2017-Nov-09 12:00N 30°11' W 093°19'0 0.0
2017-Nov-09 11:30N 30°11' W 093°19'0 0.0
2017-Nov-09 11:00N 30°11' W 093°19'0 0.0
2017-Nov-09 10:30N 30°11' W 093°19'0 0.0
2017-Nov-09 10:00N 30°11' W 093°19'0 0.0
2017-Nov-09 09:30N 30°11' W 093°19'0 0.0
2017-Nov-09 09:00N 30°11' W 093°19'0 0.0
2017-Nov-09 08:30N 30°11' W 093°19'0 0.0
2017-Nov-09 08:00N 30°11' W 093°19'0 0.0
2017-Nov-09 07:30N 30°11' W 093°19'0 0.0
2017-Nov-09 07:00N 30°11' W 093°19'0 0.0
2017-Nov-09 06:30N 30°11' W 093°19'0 0.1
2017-Nov-09 06:01N 30°11' W 093°19'3 5.5
2017-Nov-09 05:30N 30°09' W 093°20'3 5.8
2017-Nov-09 05:00N 30°06' W 093°20'1 2.7
2017-Nov-09 04:30N 30°04' W 093°20'0 0.0
2017-Nov-09 04:00N 30°04' W 093°20'0 0.1
2017-Nov-09 03:30N 30°04' W 093°20'1 2.2
2017-Nov-09 03:00N 30°04' W 093°21'0 0.0
2017-Nov-09 02:30N 30°04' W 093°21'0 0.0
2017-Nov-09 02:00N 30°04' W 093°21'0 0.0
2017-Nov-09 01:30N 30°04' W 093°21'0 0.0
2017-Nov-09 01:00N 30°04' W 093°21'0 0.0
2017-Nov-09 00:30N 30°04' W 093°21'0 0.0
2017-Nov-09 00:00N 30°04' W 093°21'0 0.0
2017-Nov-08 23:30N 30°04' W 093°21'0 0.0
2017-Nov-08 23:00N 30°04' W 093°21'0 0.0
2017-Nov-08 22:30N 30°04' W 093°21'0 0.0
2017-Nov-08 22:00N 30°04' W 093°21'0 0.0
2017-Nov-08 21:30N 30°04' W 093°21'0 0.0
2017-Nov-08 21:00N 30°04' W 093°21'0 0.0
2017-Nov-08 20:30N 30°04' W 093°21'0 0.0
2017-Nov-08 20:00N 30°04' W 093°21'0 0.0
2017-Nov-08 19:30N 30°04' W 093°21'0 0.0
2017-Nov-08 19:00N 30°04' W 093°21'0 0.0
2017-Nov-08 18:30N 30°04' W 093°21'0 0.0
2017-Nov-08 18:00N 30°04' W 093°21'0 0.0
2017-Nov-08 17:30N 30°04' W 093°21'0 0.0
2017-Nov-08 17:00N 30°04' W 093°21'0 0.0
2017-Nov-08 16:30N 30°04' W 093°21'0 0.0
2017-Nov-08 16:00N 30°04' W 093°21'0 0.0
2017-Nov-08 15:30N 30°04' W 093°21'0 0.0
2017-Nov-08 15:00N 30°04' W 093°21'0 0.0
2017-Nov-08 14:30N 30°04' W 093°21'0 0.0
2017-Nov-08 14:00N 30°04' W 093°21'0 0.0
2017-Nov-08 13:30N 30°04' W 093°21'0 0.0
2017-Nov-08 13:00N 30°04' W 093°21'0 0.0
2017-Nov-08 12:30N 30°04' W 093°21'0 0.0
2017-Nov-08 12:00N 30°04' W 093°21'0 0.0
2017-Nov-08 11:30N 30°04' W 093°21'  
Track history (hours):
 
Tides and Currents Weather Stations Pressure Air Temp Water Temp Dewpoint Dewpoint Depression Visibility Wind Speed Wind Dir Waves Ship Positions

Mackenzie Hope

Owner: Genesis Marine, LLC, Houston, TX. More information available from US FCC via Universal Licensing System and Coast Guard Vessel Documentation Center.

Last reported at 2017-Nov-18 11:30 UTC. Time now 2017-Nov-22 11:02 UTC.
Position N 29°30' W 094°52'.

Length 25 m; draft 3.3 m.

Type: Ship (hazmat cat B). MMSI: 367756040.

Date/timePositionNaut miles runAvg speedWind from/ knotsBaromVisibWave heightAir tempDewpointWater temp
2017-Nov-18 11:30N 29°30' W 094°52'4 8.0
2017-Nov-18 10:59N 29°33' W 094°55'4 8.0
2017-Nov-18 10:30N 29°36' W 094°57'4 8.2
2017-Nov-18 10:00N 29°40' W 094°59'4 6.2
2017-Nov-18 09:23N 29°43' W 095°01'5 1.0
2017-Nov-18 04:30N 29°46' W 095°06'0 0.2
2017-Nov-18 01:25N 29°46' W 095°06'2 5.4
2017-Nov-18 01:00N 29°45' W 095°04'3 7.0
2017-Nov-18 00:30N 29°42' W 095°01'4 7.2
2017-Nov-18 00:00N 29°40' W 094°58'4 7.5
2017-Nov-17 23:30N 29°36' W 094°57'4 7.2
2017-Nov-17 23:00N 29°33' W 094°55'4 7.5
2017-Nov-17 22:25N 29°30' W 094°52'68 4.7
2017-Nov-17 07:52N 30°03' W 093°43'3 6.9
2017-Nov-17 07:30N 30°04' W 093°40'4 6.9
2017-Nov-17 06:59N 30°04' W 093°36'3 6.6
2017-Nov-17 06:30N 30°04' W 093°33'3 6.6
2017-Nov-17 06:00N 30°04' W 093°29'3 6.8
2017-Nov-17 05:30N 30°04' W 093°25'3 5.8
2017-Nov-17 05:00N 30°04' W 093°22'3 6.6
2017-Nov-17 04:30N 30°06' W 093°19'2 3.1
2017-Nov-17 04:00N 30°05' W 093°17'1 2.1
2017-Nov-17 03:30N 30°05' W 093°16'0 0.1
2017-Nov-17 03:00N 30°04' W 093°16'2 3.2
2017-Nov-17 02:31N 30°03' W 093°16'3 6.1
2017-Nov-17 02:00N 30°01' W 093°14'3 6.6
2017-Nov-17 01:30N 29°58' W 093°11'3 6.2
2017-Nov-17 01:00N 29°56' W 093°08'3 6.7
2017-Nov-17 00:30N 29°56' W 093°05'0 0.3
2017-Nov-17 00:00N 29°56' W 093°04'33 6.2
2017-Nov-16 18:36N 29°53' W 092°26'2 6.4
2017-Nov-16 18:22N 29°53' W 092°24'3 6.1
2017-Nov-16 17:53N 29°51' W 092°22'2 6.5
2017-Nov-16 17:30N 29°50' W 092°19'3 5.9
2017-Nov-16 17:00N 29°49' W 092°16'3 6.8
2017-Nov-16 16:30N 29°47' W 092°13'3 6.1
2017-Nov-16 16:01N 29°47' W 092°09'3 6.8
2017-Nov-16 15:30N 29°48' W 092°05'3 6.8
2017-Nov-16 15:00N 29°49' W 092°02'3 6.6
2017-Nov-16 14:30N 29°50' W 091°58'3 6.4
2017-Nov-16 14:00N 29°51' W 091°55'4 5.4
2017-Nov-16 13:15N 29°50' W 091°50'2 6.2
2017-Nov-16 13:00N 29°49' W 091°49'49 6.0
2017-Nov-16 04:54N 29°34' W 090°56'3 6.7
2017-Nov-16 04:27N 29°32' W 090°53'3 6.4
2017-Nov-16 04:00N 29°32' W 090°50'3 6.6
2017-Nov-16 03:31N 29°32' W 090°46'3 5.1
2017-Nov-16 03:00N 29°34' W 090°44'2 3.9
2017-Nov-16 02:30N 29°36' W 090°43'2 4.2
2017-Nov-16 02:00N 29°36' W 090°40'3 6.2
2017-Nov-16 01:31N 29°35' W 090°37'3 5.6
2017-Nov-16 01:00N 29°34' W 090°34'3 6.1
2017-Nov-16 00:30N 29°34' W 090°31'24 1.2
2017-Nov-15 04:59N 29°56' W 090°21'2 3.9
2017-Nov-15 04:27N 29°57' W 090°23'  
2017-Nov-11 23:50N 29°33' W 090°24'2 5.3
2017-Nov-11 23:30N 29°33' W 090°26'3 5.3
2017-Nov-11 23:00N 29°34' W 090°29'3 5.2
2017-Nov-11 22:30N 29°34' W 090°32'2 4.7
2017-Nov-11 22:00N 29°34' W 090°35'2 4.6
2017-Nov-11 21:30N 29°35' W 090°37'2 4.5
2017-Nov-11 21:00N 29°36' W 090°39'2 4.3
2017-Nov-11 20:30N 29°37' W 090°42'2 3.2
2017-Nov-11 20:00N 29°35' W 090°43'2 4.1
2017-Nov-11 19:30N 29°34' W 090°44'1 2.1
2017-Nov-11 19:00N 29°33' W 090°45'1 1.5
2017-Nov-11 18:30N 29°32' W 090°46'0 0.0
2017-Nov-11 18:00N 29°32' W 090°46'0 0.8
2017-Nov-11 17:30N 29°32' W 090°46'3 5.1
2017-Nov-11 16:59N 29°32' W 090°49'3 5.5
2017-Nov-11 16:23N 29°32' W 090°53'54 4.2
2017-Nov-11 03:29N 29°51' W 091°52'59 4.4
2017-Nov-10 13:51N 29°56' W 093°00'2 4.8
2017-Nov-10 13:29N 29°56' W 093°02'2 4.8
2017-Nov-10 13:00N 29°56' W 093°05'2 3.8
2017-Nov-10 12:30N 29°56' W 093°07'2 3.9
2017-Nov-10 12:00N 29°56' W 093°09'2 4.8
2017-Nov-10 11:30N 29°58' W 093°11'2 4.8
2017-Nov-10 11:00N 29°60' W 093°13'2 4.1
2017-Nov-10 10:30N 30°01' W 093°14'2 4.3
2017-Nov-10 10:00N 30°03' W 093°16'2 4.5
2017-Nov-10 09:30N 30°05' W 093°17'1 2.3
2017-Nov-10 09:00N 30°06' W 093°18'0 0.6
2017-Nov-10 08:30N 30°06' W 093°18'0 0.0
2017-Nov-10 08:00N 30°06' W 093°18'0 0.1
2017-Nov-10 07:30N 30°06' W 093°18'1 2.0
2017-Nov-10 07:00N 30°06' W 093°19'2 4.7
2017-Nov-10 06:30N 30°08' W 093°20'3 6.0
2017-Nov-10 06:00N 30°11' W 093°19'0 0.8
2017-Nov-10 05:30N 30°11' W 093°18'0 0.0
2017-Nov-10 05:00N 30°11' W 093°18'0 0.4
2017-Nov-10 04:30N 30°11' W 093°19'0 0.0
2017-Nov-10 04:00N 30°11' W 093°19'0 0.0
2017-Nov-10 03:30N 30°11' W 093°19'0 0.0
2017-Nov-10 03:00N 30°11' W 093°19'0 0.0
2017-Nov-10 02:30N 30°11' W 093°19'0 0.0
2017-Nov-10 02:00N 30°11' W 093°19'0 0.0
2017-Nov-10 01:30N 30°11' W 093°19'0 0.0
2017-Nov-10 01:00N 30°11' W 093°19'0 0.0
2017-Nov-10 00:30N 30°11' W 093°19'0 0.0
2017-Nov-10 00:00N 30°11' W 093°19'0 0.0
2017-Nov-09 23:30N 30°11' W 093°19'0 0.0
2017-Nov-09 23:00N 30°11' W 093°19'0 0.0
2017-Nov-09 22:30N 30°11' W 093°19'0 0.0
2017-Nov-09 22:00N 30°11' W 093°19'0 0.0
2017-Nov-09 21:30N 30°11' W 093°19'0 0.0
2017-Nov-09 21:00N 30°11' W 093°19'0 0.0
2017-Nov-09 20:30N 30°11' W 093°19'0 0.0
2017-Nov-09 20:00N 30°11' W 093°19'0 0.0
2017-Nov-09 19:30N 30°11' W 093°19'0 0.0
2017-Nov-09 19:00N 30°11' W 093°19'0 0.0
2017-Nov-09 18:30N 30°11' W 093°19'0 0.0
2017-Nov-09 18:00N 30°11' W 093°19'0 0.0
2017-Nov-09 17:30N 30°11' W 093°19'0 0.0
2017-Nov-09 17:00N 30°11' W 093°19'0 0.0
2017-Nov-09 16:30N 30°11' W 093°19'0 0.0
2017-Nov-09 16:00N 30°11' W 093°19'0 0.0
2017-Nov-09 15:30N 30°11' W 093°19'0 0.0
2017-Nov-09 15:00N 30°11' W 093°19'0 0.0
2017-Nov-09 14:30N 30°11' W 093°19'0 0.0
2017-Nov-09 14:00N 30°11' W 093°19'0 0.0
2017-Nov-09 13:30N 30°11' W 093°19'0 0.0
2017-Nov-09 13:00N 30°11' W 093°19'0 0.0
2017-Nov-09 12:30N 30°11' W 093°19'0 0.0
2017-Nov-09 12:00N 30°11' W 093°19'0 0.0
2017-Nov-09 11:30N 30°11' W 093°19'0 0.0
2017-Nov-09 11:00N 30°11' W 093°19'0 0.0
2017-Nov-09 10:30N 30°11' W 093°19'0 0.0
2017-Nov-09 10:00N 30°11' W 093°19'0 0.0
2017-Nov-09 09:30N 30°11' W 093°19'0 0.0
2017-Nov-09 09:00N 30°11' W 093°19'0 0.0
2017-Nov-09 08:30N 30°11' W 093°19'0 0.0
2017-Nov-09 08:00N 30°11' W 093°19'0 0.0
2017-Nov-09 07:30N 30°11' W 093°19'0 0.0
2017-Nov-09 07:00N 30°11' W 093°19'0 0.0
2017-Nov-09 06:30N 30°11' W 093°19'0 0.1
2017-Nov-09 06:01N 30°11' W 093°19'3 5.5
2017-Nov-09 05:30N 30°09' W 093°20'3 5.8
2017-Nov-09 05:00N 30°06' W 093°20'1 2.7
2017-Nov-09 04:30N 30°04' W 093°20'0 0.0
2017-Nov-09 04:00N 30°04' W 093°20'0 0.1
2017-Nov-09 03:30N 30°04' W 093°20'1 2.2
2017-Nov-09 03:00N 30°04' W 093°21'0 0.0
2017-Nov-09 02:30N 30°04' W 093°21'0 0.0
2017-Nov-09 02:00N 30°04' W 093°21'0 0.0
2017-Nov-09 01:30N 30°04' W 093°21'0 0.0
2017-Nov-09 01:00N 30°04' W 093°21'0 0.0
2017-Nov-09 00:30N 30°04' W 093°21'0 0.0
2017-Nov-09 00:00N 30°04' W 093°21'0 0.0
2017-Nov-08 23:30N 30°04' W 093°21'0 0.0
2017-Nov-08 23:00N 30°04' W 093°21'0 0.0
2017-Nov-08 22:30N 30°04' W 093°21'0 0.0
2017-Nov-08 22:00N 30°04' W 093°21'0 0.0
2017-Nov-08 21:30N 30°04' W 093°21'0 0.0
2017-Nov-08 21:00N 30°04' W 093°21'0 0.0
2017-Nov-08 20:30N 30°04' W 093°21'0 0.0
2017-Nov-08 20:00N 30°04' W 093°21'0 0.0
2017-Nov-08 19:30N 30°04' W 093°21'0 0.0
2017-Nov-08 19:00N 30°04' W 093°21'0 0.0
2017-Nov-08 18:30N 30°04' W 093°21'0 0.0
2017-Nov-08 18:00N 30°04' W 093°21'0 0.0
2017-Nov-08 17:30N 30°04' W 093°21'0 0.0
2017-Nov-08 17:00N 30°04' W 093°21'0 0.0
2017-Nov-08 16:30N 30°04' W 093°21'0 0.0
2017-Nov-08 16:00N 30°04' W 093°21'0 0.0
2017-Nov-08 15:30N 30°04' W 093°21'0 0.0
2017-Nov-08 15:00N 30°04' W 093°21'0 0.0
2017-Nov-08 14:30N 30°04' W 093°21'0 0.0
2017-Nov-08 14:00N 30°04' W 093°21'0 0.0
2017-Nov-08 13:30N 30°04' W 093°21'0 0.0
2017-Nov-08 13:00N 30°04' W 093°21'0 0.0
2017-Nov-08 12:30N 30°04' W 093°21'0 0.0
2017-Nov-08 12:00N 30°04' W 093°21'0 0.0
2017-Nov-08 11:30N 30°04' W 093°21'  

Dump ship's entire track history